sensor_id;sensor_type;location;lat;lon;timestamp;P1;durP1;ratioP1;P2;durP2;ratioP2
21034;SDS011;10676;50.848;3.272;2023-09-08T00:02:22;118.50;;;107.30;;
21034;SDS011;10676;50.848;3.272;2023-09-08T00:04:49;128.18;;;115.90;;
21034;SDS011;10676;50.848;3.272;2023-09-08T00:07:15;130.82;;;118.82;;
21034;SDS011;10676;50.848;3.272;2023-09-08T00:09:40;136.57;;;124.30;;
21034;SDS011;10676;50.848;3.272;2023-09-08T00:12:06;140.85;;;128.32;;
21034;SDS011;10676;50.848;3.272;2023-09-08T00:14:32;151.35;;;138.02;;
21034;SDS011;10676;50.848;3.272;2023-09-08T00:16:57;158.13;;;144.45;;
21034;SDS011;10676;50.848;3.272;2023-09-08T00:19:23;177.50;;;162.15;;
21034;SDS011;10676;50.848;3.272;2023-09-08T00:21:49;189.23;;;173.57;;
21034;SDS011;10676;50.848;3.272;2023-09-08T00:24:15;206.13;;;189.13;;
21034;SDS011;10676;50.848;3.272;2023-09-08T00:26:42;219.38;;;202.35;;
21034;SDS011;10676;50.848;3.272;2023-09-08T00:29:08;236.10;;;217.55;;
21034;SDS011;10676;50.848;3.272;2023-09-08T00:31:33;239.75;;;221.13;;
21034;SDS011;10676;50.848;3.272;2023-09-08T00:33:59;250.50;;;231.35;;
21034;SDS011;10676;50.848;3.272;2023-09-08T00:36:25;256.48;;;236.85;;
21034;SDS011;10676;50.848;3.272;2023-09-08T00:38:51;261.70;;;241.88;;
21034;SDS011;10676;50.848;3.272;2023-09-08T00:41:16;254.60;;;234.65;;
21034;SDS011;10676;50.848;3.272;2023-09-08T00:43:42;254.30;;;234.50;;
21034;SDS011;10676;50.848;3.272;2023-09-08T00:46:07;272.15;;;250.82;;
21034;SDS011;10676;50.848;3.272;2023-09-08T00:48:34;273.83;;;252.27;;
21034;SDS011;10676;50.848;3.272;2023-09-08T00:51:00;283.95;;;261.42;;
21034;SDS011;10676;50.848;3.272;2023-09-08T00:53:27;282.33;;;260.10;;
21034;SDS011;10676;50.848;3.272;2023-09-08T00:55:53;286.67;;;264.52;;
21034;SDS011;10676;50.848;3.272;2023-09-08T00:58:19;288.27;;;265.85;;
21034;SDS011;10676;50.848;3.272;2023-09-08T01:00:45;295.45;;;272.35;;
21034;SDS011;10676;50.848;3.272;2023-09-08T01:03:11;292.92;;;269.73;;
21034;SDS011;10676;50.848;3.272;2023-09-08T01:05:37;296.98;;;273.40;;
21034;SDS011;10676;50.848;3.272;2023-09-08T01:08:03;303.45;;;279.05;;
21034;SDS011;10676;50.848;3.272;2023-09-08T01:10:30;303.77;;;279.23;;
21034;SDS011;10676;50.848;3.272;2023-09-08T01:12:56;307.60;;;282.77;;
21034;SDS011;10676;50.848;3.272;2023-09-08T01:15:22;307.40;;;282.77;;
21034;SDS011;10676;50.848;3.272;2023-09-08T01:17:48;309.55;;;284.58;;
21034;SDS011;10676;50.848;3.272;2023-09-08T01:25:46;320.27;;;294.58;;
21034;SDS011;10676;50.848;3.272;2023-09-08T01:28:20;314.80;;;289.13;;
21034;SDS011;10676;50.848;3.272;2023-09-08T01:30:47;323.95;;;297.65;;
21034;SDS011;10676;50.848;3.272;2023-09-08T01:33:13;325.92;;;299.63;;
21034;SDS011;10676;50.848;3.272;2023-09-08T01:35:39;323.92;;;297.40;;
21034;SDS011;10676;50.848;3.272;2023-09-08T01:38:05;326.30;;;299.23;;
21034;SDS011;10676;50.848;3.272;2023-09-08T01:40:31;329.38;;;302.42;;
21034;SDS011;10676;50.848;3.272;2023-09-08T01:42:57;328.60;;;301.20;;
21034;SDS011;10676;50.848;3.272;2023-09-08T01:45:22;341.77;;;312.52;;
21034;SDS011;10676;50.848;3.272;2023-09-08T01:47:48;350.55;;;320.45;;
21034;SDS011;10676;50.848;3.272;2023-09-08T01:50:13;345.00;;;314.80;;
21034;SDS011;10676;50.848;3.272;2023-09-08T01:52:41;344.48;;;314.08;;
21034;SDS011;10676;50.848;3.272;2023-09-08T01:55:06;345.95;;;315.63;;
21034;SDS011;10676;50.848;3.272;2023-09-08T01:57:33;353.38;;;322.35;;
21034;SDS011;10676;50.848;3.272;2023-09-08T01:59:58;347.70;;;316.65;;
21034;SDS011;10676;50.848;3.272;2023-09-08T02:02:24;353.27;;;321.90;;
21034;SDS011;10676;50.848;3.272;2023-09-08T02:04:50;352.73;;;321.58;;
21034;SDS011;10676;50.848;3.272;2023-09-08T02:07:15;356.92;;;325.40;;
21034;SDS011;10676;50.848;3.272;2023-09-08T02:09:41;360.13;;;327.95;;
21034;SDS011;10676;50.848;3.272;2023-09-08T02:12:07;364.90;;;333.25;;
21034;SDS011;10676;50.848;3.272;2023-09-08T02:14:33;367.10;;;334.05;;
21034;SDS011;10676;50.848;3.272;2023-09-08T02:16:58;365.25;;;332.17;;
21034;SDS011;10676;50.848;3.272;2023-09-08T02:19:24;375.35;;;341.27;;
21034;SDS011;10676;50.848;3.272;2023-09-08T02:21:52;374.20;;;340.52;;
21034;SDS011;10676;50.848;3.272;2023-09-08T02:24:18;376.48;;;342.38;;
21034;SDS011;10676;50.848;3.272;2023-09-08T02:26:44;376.02;;;341.38;;
21034;SDS011;10676;50.848;3.272;2023-09-08T02:29:09;383.20;;;348.10;;
21034;SDS011;10676;50.848;3.272;2023-09-08T02:31:35;373.77;;;339.10;;
21034;SDS011;10676;50.848;3.272;2023-09-08T02:34:01;370.65;;;337.70;;
21034;SDS011;10676;50.848;3.272;2023-09-08T02:36:28;369.90;;;335.27;;
21034;SDS011;10676;50.848;3.272;2023-09-08T02:38:54;368.85;;;334.25;;
21034;SDS011;10676;50.848;3.272;2023-09-08T02:41:21;368.38;;;333.55;;
21034;SDS011;10676;50.848;3.272;2023-09-08T02:43:47;363.33;;;329.52;;
21034;SDS011;10676;50.848;3.272;2023-09-08T02:46:13;368.27;;;333.65;;
21034;SDS011;10676;50.848;3.272;2023-09-08T02:48:39;371.67;;;337.10;;
21034;SDS011;10676;50.848;3.272;2023-09-08T02:51:06;374.00;;;339.38;;
21034;SDS011;10676;50.848;3.272;2023-09-08T02:53:31;373.00;;;338.65;;
21034;SDS011;10676;50.848;3.272;2023-09-08T02:55:58;371.60;;;337.05;;
21034;SDS011;10676;50.848;3.272;2023-09-08T02:58:28;368.42;;;334.55;;
21034;SDS011;10676;50.848;3.272;2023-09-08T03:00:55;370.02;;;335.98;;
21034;SDS011;10676;50.848;3.272;2023-09-08T03:03:21;367.25;;;332.80;;
21034;SDS011;10676;50.848;3.272;2023-09-08T03:05:47;365.52;;;331.17;;
21034;SDS011;10676;50.848;3.272;2023-09-08T03:08:13;368.20;;;334.10;;
21034;SDS011;10676;50.848;3.272;2023-09-08T03:10:40;362.52;;;329.33;;
21034;SDS011;10676;50.848;3.272;2023-09-08T03:13:05;365.77;;;332.70;;
21034;SDS011;10676;50.848;3.272;2023-09-08T03:15:31;368.00;;;334.15;;
21034;SDS011;10676;50.848;3.272;2023-09-08T03:17:59;376.48;;;341.27;;
21034;SDS011;10676;50.848;3.272;2023-09-08T03:20:25;365.05;;;329.63;;
21034;SDS011;10676;50.848;3.272;2023-09-08T03:22:51;377.33;;;341.50;;
21034;SDS011;10676;50.848;3.272;2023-09-08T03:25:17;370.52;;;335.95;;
21034;SDS011;10676;50.848;3.272;2023-09-08T03:27:43;377.02;;;341.83;;
21034;SDS011;10676;50.848;3.272;2023-09-08T03:30:08;372.77;;;338.55;;
21034;SDS011;10676;50.848;3.272;2023-09-08T03:32:35;366.80;;;333.65;;
21034;SDS011;10676;50.848;3.272;2023-09-08T03:35:01;376.05;;;341.33;;
21034;SDS011;10676;50.848;3.272;2023-09-08T03:37:32;378.00;;;342.33;;
21034;SDS011;10676;50.848;3.272;2023-09-08T03:40:01;375.23;;;340.15;;
21034;SDS011;10676;50.848;3.272;2023-09-08T03:42:28;375.02;;;340.10;;
21034;SDS011;10676;50.848;3.272;2023-09-08T03:44:53;370.30;;;336.20;;
21034;SDS011;10676;50.848;3.272;2023-09-08T03:47:19;375.08;;;340.60;;
21034;SDS011;10676;50.848;3.272;2023-09-08T03:49:44;378.30;;;344.00;;
21034;SDS011;10676;50.848;3.272;2023-09-08T03:52:10;368.48;;;334.70;;
21034;SDS011;10676;50.848;3.272;2023-09-08T03:54:37;377.20;;;342.77;;
21034;SDS011;10676;50.848;3.272;2023-09-08T03:57:03;368.98;;;334.75;;
21034;SDS011;10676;50.848;3.272;2023-09-08T03:59:29;386.30;;;351.08;;
21034;SDS011;10676;50.848;3.272;2023-09-08T04:01:54;395.63;;;359.55;;
21034;SDS011;10676;50.848;3.272;2023-09-08T04:04:20;385.25;;;350.05;;
21034;SDS011;10676;50.848;3.272;2023-09-08T04:06:46;382.38;;;346.92;;
21034;SDS011;10676;50.848;3.272;2023-09-08T04:09:11;394.15;;;358.67;;
21034;SDS011;10676;50.848;3.272;2023-09-08T04:11:37;384.60;;;349.63;;
21034;SDS011;10676;50.848;3.272;2023-09-08T04:14:03;376.50;;;340.42;;
21034;SDS011;10676;50.848;3.272;2023-09-08T04:16:28;381.73;;;346.58;;
21034;SDS011;10676;50.848;3.272;2023-09-08T04:18:54;378.40;;;342.60;;
21034;SDS011;10676;50.848;3.272;2023-09-08T04:21:20;373.48;;;338.73;;
21034;SDS011;10676;50.848;3.272;2023-09-08T04:23:45;376.02;;;340.38;;
21034;SDS011;10676;50.848;3.272;2023-09-08T04:26:11;365.17;;;331.67;;
21034;SDS011;10676;50.848;3.272;2023-09-08T04:28:38;365.92;;;332.33;;
21034;SDS011;10676;50.848;3.272;2023-09-08T04:31:03;366.92;;;332.10;;
21034;SDS011;10676;50.848;3.272;2023-09-08T04:33:29;367.52;;;334.10;;
21034;SDS011;10676;50.848;3.272;2023-09-08T04:35:55;374.70;;;339.58;;
21034;SDS011;10676;50.848;3.272;2023-09-08T04:38:21;366.70;;;333.38;;
21034;SDS011;10676;50.848;3.272;2023-09-08T04:40:46;380.40;;;344.90;;
21034;SDS011;10676;50.848;3.272;2023-09-08T04:43:12;376.20;;;341.13;;
21034;SDS011;10676;50.848;3.272;2023-09-08T04:45:38;374.17;;;339.48;;
21034;SDS011;10676;50.848;3.272;2023-09-08T04:48:04;363.55;;;330.85;;
21034;SDS011;10676;50.848;3.272;2023-09-08T04:50:30;356.67;;;322.08;;
21034;SDS011;10676;50.848;3.272;2023-09-08T04:52:56;348.90;;;316.60;;
21034;SDS011;10676;50.848;3.272;2023-09-08T04:55:21;351.20;;;316.38;;
21034;SDS011;10676;50.848;3.272;2023-09-08T04:57:47;347.70;;;313.83;;
21034;SDS011;10676;50.848;3.272;2023-09-08T05:00:13;353.52;;;320.95;;
21034;SDS011;10676;50.848;3.272;2023-09-08T05:02:39;342.92;;;310.85;;
21034;SDS011;10676;50.848;3.272;2023-09-08T05:05:04;339.45;;;306.10;;
21034;SDS011;10676;50.848;3.272;2023-09-08T05:07:30;342.05;;;308.20;;
21034;SDS011;10676;50.848;3.272;2023-09-08T05:09:56;338.10;;;303.85;;
21034;SDS011;10676;50.848;3.272;2023-09-08T05:12:22;336.88;;;302.80;;
21034;SDS011;10676;50.848;3.272;2023-09-08T05:14:47;337.02;;;304.10;;
21034;SDS011;10676;50.848;3.272;2023-09-08T05:17:13;345.90;;;312.52;;
21034;SDS011;10676;50.848;3.272;2023-09-08T05:19:39;338.67;;;306.15;;
21034;SDS011;10676;50.848;3.272;2023-09-08T05:22:05;343.92;;;310.40;;
21034;SDS011;10676;50.848;3.272;2023-09-08T05:24:34;347.83;;;314.13;;
21034;SDS011;10676;50.848;3.272;2023-09-08T05:26:59;351.60;;;318.23;;
21034;SDS011;10676;50.848;3.272;2023-09-08T05:29:25;346.40;;;313.77;;
21034;SDS011;10676;50.848;3.272;2023-09-08T05:31:51;344.55;;;312.55;;
21034;SDS011;10676;50.848;3.272;2023-09-08T05:34:16;341.02;;;310.35;;
21034;SDS011;10676;50.848;3.272;2023-09-08T05:36:42;329.75;;;298.30;;
21034;SDS011;10676;50.848;3.272;2023-09-08T05:39:08;339.58;;;307.40;;
21034;SDS011;10676;50.848;3.272;2023-09-08T05:41:35;339.88;;;308.10;;
21034;SDS011;10676;50.848;3.272;2023-09-08T05:44:01;331.60;;;300.55;;
21034;SDS011;10676;50.848;3.272;2023-09-08T05:46:27;334.25;;;304.42;;
21034;SDS011;10676;50.848;3.272;2023-09-08T05:48:53;327.23;;;297.63;;
21034;SDS011;10676;50.848;3.272;2023-09-08T05:51:18;327.27;;;298.02;;
21034;SDS011;10676;50.848;3.272;2023-09-08T05:53:44;337.15;;;306.23;;
21034;SDS011;10676;50.848;3.272;2023-09-08T05:56:10;347.88;;;314.13;;
21034;SDS011;10676;50.848;3.272;2023-09-08T05:58:35;351.55;;;321.90;;
21034;SDS011;10676;50.848;3.272;2023-09-08T06:01:02;353.38;;;324.58;;
21034;SDS011;10676;50.848;3.272;2023-09-08T06:03:28;344.60;;;316.77;;
21034;SDS011;10676;50.848;3.272;2023-09-08T06:05:55;337.48;;;311.05;;
21034;SDS011;10676;50.848;3.272;2023-09-08T06:08:21;329.63;;;304.63;;
21034;SDS011;10676;50.848;3.272;2023-09-08T06:10:47;331.58;;;306.80;;
21034;SDS011;10676;50.848;3.272;2023-09-08T06:13:13;322.98;;;299.58;;
21034;SDS011;10676;50.848;3.272;2023-09-08T06:15:38;321.52;;;299.00;;
21034;SDS011;10676;50.848;3.272;2023-09-08T06:18:04;304.98;;;284.02;;
21034;SDS011;10676;50.848;3.272;2023-09-08T06:20:30;280.52;;;261.58;;
21034;SDS011;10676;50.848;3.272;2023-09-08T06:22:56;253.70;;;236.35;;
21034;SDS011;10676;50.848;3.272;2023-09-08T06:25:22;204.07;;;189.65;;
21034;SDS011;10676;50.848;3.272;2023-09-08T06:27:48;157.35;;;145.48;;
21034;SDS011;10676;50.848;3.272;2023-09-08T06:30:13;123.80;;;114.60;;
21034;SDS011;10676;50.848;3.272;2023-09-08T06:32:41;91.55;;;84.13;;
21034;SDS011;10676;50.848;3.272;2023-09-08T06:35:07;71.13;;;65.32;;
21034;SDS011;10676;50.848;3.272;2023-09-08T06:37:36;52.60;;;47.83;;
21034;SDS011;10676;50.848;3.272;2023-09-08T06:40:03;44.90;;;40.40;;
21034;SDS011;10676;50.848;3.272;2023-09-08T06:42:29;38.75;;;35.10;;
21034;SDS011;10676;50.848;3.272;2023-09-08T06:44:55;30.92;;;28.15;;
21034;SDS011;10676;50.848;3.272;2023-09-08T06:47:21;29.25;;;26.73;;
21034;SDS011;10676;50.848;3.272;2023-09-08T06:49:46;27.50;;;25.00;;
21034;SDS011;10676;50.848;3.272;2023-09-08T06:52:12;26.02;;;23.65;;
21034;SDS011;10676;50.848;3.272;2023-09-08T06:54:38;24.92;;;22.88;;
21034;SDS011;10676;50.848;3.272;2023-09-08T06:57:04;24.73;;;22.70;;
21034;SDS011;10676;50.848;3.272;2023-09-08T06:59:29;25.77;;;23.30;;
21034;SDS011;10676;50.848;3.272;2023-09-08T07:01:55;24.27;;;22.08;;
21034;SDS011;10676;50.848;3.272;2023-09-08T07:04:20;23.50;;;21.35;;
21034;SDS011;10676;50.848;3.272;2023-09-08T07:06:46;23.73;;;21.80;;
21034;SDS011;10676;50.848;3.272;2023-09-08T07:09:12;22.10;;;20.27;;
21034;SDS011;10676;50.848;3.272;2023-09-08T07:11:38;21.10;;;19.40;;
21034;SDS011;10676;50.848;3.272;2023-09-08T07:14:03;23.40;;;21.05;;
21034;SDS011;10676;50.848;3.272;2023-09-08T07:16:29;21.85;;;20.02;;
21034;SDS011;10676;50.848;3.272;2023-09-08T07:18:55;21.25;;;19.35;;
21034;SDS011;10676;50.848;3.272;2023-09-08T07:21:20;21.45;;;19.45;;
21034;SDS011;10676;50.848;3.272;2023-09-08T07:23:46;20.80;;;18.80;;
21034;SDS011;10676;50.848;3.272;2023-09-08T07:26:12;21.35;;;19.10;;
21034;SDS011;10676;50.848;3.272;2023-09-08T07:28:37;20.23;;;18.30;;
21034;SDS011;10676;50.848;3.272;2023-09-08T07:31:04;19.52;;;17.73;;
21034;SDS011;10676;50.848;3.272;2023-09-08T07:33:30;19.45;;;17.63;;
21034;SDS011;10676;50.848;3.272;2023-09-08T07:35:56;19.80;;;17.77;;
21034;SDS011;10676;50.848;3.272;2023-09-08T07:38:22;19.33;;;17.63;;
21034;SDS011;10676;50.848;3.272;2023-09-08T07:40:47;17.67;;;16.15;;
21034;SDS011;10676;50.848;3.272;2023-09-08T07:43:13;19.00;;;17.27;;
21034;SDS011;10676;50.848;3.272;2023-09-08T07:45:39;18.42;;;16.52;;
21034;SDS011;10676;50.848;3.272;2023-09-08T07:48:05;21.70;;;17.05;;
21034;SDS011;10676;50.848;3.272;2023-09-08T07:50:31;19.77;;;17.50;;
21034;SDS011;10676;50.848;3.272;2023-09-08T07:52:57;21.52;;;17.55;;
21034;SDS011;10676;50.848;3.272;2023-09-08T07:55:23;18.95;;;17.15;;
21034;SDS011;10676;50.848;3.272;2023-09-08T07:57:54;18.52;;;16.77;;
21034;SDS011;10676;50.848;3.272;2023-09-08T08:00:22;17.92;;;16.13;;
21034;SDS011;10676;50.848;3.272;2023-09-08T08:02:48;18.80;;;16.85;;
21034;SDS011;10676;50.848;3.272;2023-09-08T08:05:16;18.52;;;16.90;;
21034;SDS011;10676;50.848;3.272;2023-09-08T08:07:43;18.48;;;16.70;;
21034;SDS011;10676;50.848;3.272;2023-09-08T08:10:10;20.40;;;16.88;;
21034;SDS011;10676;50.848;3.272;2023-09-08T08:12:37;18.95;;;17.15;;
21034;SDS011;10676;50.848;3.272;2023-09-08T08:15:04;19.52;;;17.60;;
21034;SDS011;10676;50.848;3.272;2023-09-08T08:17:30;19.63;;;17.48;;
21034;SDS011;10676;50.848;3.272;2023-09-08T08:19:57;19.52;;;17.75;;
21034;SDS011;10676;50.848;3.272;2023-09-08T08:22:32;18.75;;;17.05;;
21034;SDS011;10676;50.848;3.272;2023-09-08T08:24:58;18.85;;;17.35;;
21034;SDS011;10676;50.848;3.272;2023-09-08T08:27:24;19.90;;;18.10;;
21034;SDS011;10676;50.848;3.272;2023-09-08T08:29:50;19.67;;;17.90;;
21034;SDS011;10676;50.848;3.272;2023-09-08T08:32:16;19.65;;;17.85;;
21034;SDS011;10676;50.848;3.272;2023-09-08T08:34:42;19.27;;;17.55;;
21034;SDS011;10676;50.848;3.272;2023-09-08T08:37:10;19.48;;;17.55;;
21034;SDS011;10676;50.848;3.272;2023-09-08T08:39:36;18.65;;;17.05;;
21034;SDS011;10676;50.848;3.272;2023-09-08T08:44:38;19.63;;;17.83;;
21034;SDS011;10676;50.848;3.272;2023-09-08T08:47:10;18.48;;;16.80;;
21034;SDS011;10676;50.848;3.272;2023-09-08T08:49:37;19.30;;;17.35;;
21034;SDS011;10676;50.848;3.272;2023-09-08T08:52:07;18.30;;;15.77;;
21034;SDS011;10676;50.848;3.272;2023-09-08T08:54:42;18.00;;;16.27;;
21034;SDS011;10676;50.848;3.272;2023-09-08T08:57:08;18.02;;;16.38;;
21034;SDS011;10676;50.848;3.272;2023-09-08T09:02:03;18.88;;;17.05;;
21034;SDS011;10676;50.848;3.272;2023-09-08T09:04:30;18.08;;;16.30;;
21034;SDS011;10676;50.848;3.272;2023-09-08T09:06:56;20.27;;;17.98;;
21034;SDS011;10676;50.848;3.272;2023-09-08T09:09:23;18.73;;;17.13;;
21034;SDS011;10676;50.848;3.272;2023-09-08T09:11:49;18.17;;;16.48;;
21034;SDS011;10676;50.848;3.272;2023-09-08T09:14:15;18.85;;;16.85;;
21034;SDS011;10676;50.848;3.272;2023-09-08T09:16:42;17.73;;;16.27;;
21034;SDS011;10676;50.848;3.272;2023-09-08T09:19:09;18.52;;;16.58;;
21034;SDS011;10676;50.848;3.272;2023-09-08T09:21:45;17.83;;;16.23;;
21034;SDS011;10676;50.848;3.272;2023-09-08T09:24:29;18.00;;;16.17;;
21034;SDS011;10676;50.848;3.272;2023-09-08T09:27:00;17.35;;;16.05;;
21034;SDS011;10676;50.848;3.272;2023-09-08T09:29:26;21.45;;;16.90;;
21034;SDS011;10676;50.848;3.272;2023-09-08T09:32:03;18.35;;;16.58;;
21034;SDS011;10676;50.848;3.272;2023-09-08T09:34:33;17.52;;;15.82;;
21034;SDS011;10676;50.848;3.272;2023-09-08T09:36:59;18.38;;;16.60;;
21034;SDS011;10676;50.848;3.272;2023-09-08T09:39:25;18.73;;;16.95;;
21034;SDS011;10676;50.848;3.272;2023-09-08T09:41:55;18.65;;;16.77;;
21034;SDS011;10676;50.848;3.272;2023-09-08T09:44:22;17.70;;;16.05;;
21034;SDS011;10676;50.848;3.272;2023-09-08T09:46:51;18.75;;;16.88;;
21034;SDS011;10676;50.848;3.272;2023-09-08T09:49:17;19.27;;;17.55;;
21034;SDS011;10676;50.848;3.272;2023-09-08T09:51:44;19.52;;;16.15;;
21034;SDS011;10676;50.848;3.272;2023-09-08T09:54:12;17.20;;;15.30;;
21034;SDS011;10676;50.848;3.272;2023-09-08T09:56:40;17.25;;;15.32;;
21034;SDS011;10676;50.848;3.272;2023-09-08T09:59:10;17.33;;;15.40;;
21034;SDS011;10676;50.848;3.272;2023-09-08T10:01:38;19.48;;;16.42;;
21034;SDS011;10676;50.848;3.272;2023-09-08T10:04:05;16.27;;;14.80;;
21034;SDS011;10676;50.848;3.272;2023-09-08T10:06:32;16.25;;;14.68;;
21034;SDS011;10676;50.848;3.272;2023-09-08T10:09:02;16.40;;;14.10;;
21034;SDS011;10676;50.848;3.272;2023-09-08T10:11:51;15.27;;;14.10;;
21034;SDS011;10676;50.848;3.272;2023-09-08T10:14:18;16.40;;;15.13;;
21034;SDS011;10676;50.848;3.272;2023-09-08T10:16:44;14.93;;;13.55;;
21034;SDS011;10676;50.848;3.272;2023-09-08T10:19:14;14.93;;;13.60;;
21034;SDS011;10676;50.848;3.272;2023-09-08T10:21:46;13.93;;;12.93;;
21034;SDS011;10676;50.848;3.272;2023-09-08T10:24:17;13.40;;;12.40;;
21034;SDS011;10676;50.848;3.272;2023-09-08T10:26:51;13.57;;;12.38;;
21034;SDS011;10676;50.848;3.272;2023-09-08T10:29:32;13.40;;;12.48;;
21034;SDS011;10676;50.848;3.272;2023-09-08T10:31:59;13.57;;;12.40;;
21034;SDS011;10676;50.848;3.272;2023-09-08T10:34:25;13.85;;;12.80;;
21034;SDS011;10676;50.848;3.272;2023-09-08T10:36:52;13.55;;;12.55;;
21034;SDS011;10676;50.848;3.272;2023-09-08T10:39:27;13.73;;;12.48;;
21034;SDS011;10676;50.848;3.272;2023-09-08T10:44:43;13.52;;;12.63;;
21034;SDS011;10676;50.848;3.272;2023-09-08T10:47:12;13.82;;;12.63;;
21034;SDS011;10676;50.848;3.272;2023-09-08T10:49:38;13.98;;;12.77;;
21034;SDS011;10676;50.848;3.272;2023-09-08T10:52:08;13.55;;;12.30;;
21034;SDS011;10676;50.848;3.272;2023-09-08T10:54:42;13.73;;;12.57;;
21034;SDS011;10676;50.848;3.272;2023-09-08T10:57:24;13.82;;;12.63;;
21034;SDS011;10676;50.848;3.272;2023-09-08T10:59:57;13.70;;;12.60;;
21034;SDS011;10676;50.848;3.272;2023-09-08T11:02:40;13.60;;;12.60;;
21034;SDS011;10676;50.848;3.272;2023-09-08T11:05:08;14.02;;;12.70;;
21034;SDS011;10676;50.848;3.272;2023-09-08T11:07:38;13.88;;;12.85;;
21034;SDS011;10676;50.848;3.272;2023-09-08T11:10:06;12.98;;;11.90;;
21034;SDS011;10676;50.848;3.272;2023-09-08T11:12:33;12.75;;;11.93;;
21034;SDS011;10676;50.848;3.272;2023-09-08T11:15:03;13.00;;;12.10;;
21034;SDS011;10676;50.848;3.272;2023-09-08T11:17:30;12.88;;;11.98;;
21034;SDS011;10676;50.848;3.272;2023-09-08T11:19:57;13.45;;;12.30;;
21034;SDS011;10676;50.848;3.272;2023-09-08T11:22:24;13.35;;;12.43;;
21034;SDS011;10676;50.848;3.272;2023-09-08T11:24:55;13.30;;;12.10;;
21034;SDS011;10676;50.848;3.272;2023-09-08T11:27:22;13.02;;;11.82;;
21034;SDS011;10676;50.848;3.272;2023-09-08T11:29:49;13.20;;;12.30;;
21034;SDS011;10676;50.848;3.272;2023-09-08T11:32:15;14.25;;;12.85;;
21034;SDS011;10676;50.848;3.272;2023-09-08T11:34:41;14.32;;;12.88;;
21034;SDS011;10676;50.848;3.272;2023-09-08T11:37:13;13.98;;;12.80;;
21034;SDS011;10676;50.848;3.272;2023-09-08T11:39:41;14.82;;;13.55;;
21034;SDS011;10676;50.848;3.272;2023-09-08T11:42:11;15.30;;;13.88;;
21034;SDS011;10676;50.848;3.272;2023-09-08T11:44:38;13.88;;;12.90;;
21034;SDS011;10676;50.848;3.272;2023-09-08T11:47:08;13.73;;;12.63;;
21034;SDS011;10676;50.848;3.272;2023-09-08T11:49:39;13.43;;;12.13;;
21034;SDS011;10676;50.848;3.272;2023-09-08T11:52:06;13.07;;;12.18;;
21034;SDS011;10676;50.848;3.272;2023-09-08T11:54:33;13.63;;;12.25;;
21034;SDS011;10676;50.848;3.272;2023-09-08T11:57:01;13.82;;;12.80;;
21034;SDS011;10676;50.848;3.272;2023-09-08T11:59:30;13.95;;;12.70;;
21034;SDS011;10676;50.848;3.272;2023-09-08T12:01:57;14.63;;;13.30;;
21034;SDS011;10676;50.848;3.272;2023-09-08T12:04:24;14.68;;;13.57;;
21034;SDS011;10676;50.848;3.272;2023-09-08T12:06:51;15.50;;;14.10;;
21034;SDS011;10676;50.848;3.272;2023-09-08T12:09:17;14.80;;;13.57;;
21034;SDS011;10676;50.848;3.272;2023-09-08T12:11:45;15.35;;;13.88;;
21034;SDS011;10676;50.848;3.272;2023-09-08T12:14:11;14.48;;;12.88;;
21034;SDS011;10676;50.848;3.272;2023-09-08T12:16:38;14.40;;;13.30;;
21034;SDS011;10676;50.848;3.272;2023-09-08T12:19:05;13.63;;;12.43;;
21034;SDS011;10676;50.848;3.272;2023-09-08T12:21:34;14.68;;;13.32;;
21034;SDS011;10676;50.848;3.272;2023-09-08T12:24:18;14.07;;;12.88;;
21034;SDS011;10676;50.848;3.272;2023-09-08T12:26:44;13.80;;;12.70;;
21034;SDS011;10676;50.848;3.272;2023-09-08T12:29:13;14.63;;;13.30;;
21034;SDS011;10676;50.848;3.272;2023-09-08T12:31:38;14.63;;;13.32;;
21034;SDS011;10676;50.848;3.272;2023-09-08T12:34:04;14.25;;;13.05;;
21034;SDS011;10676;50.848;3.272;2023-09-08T12:36:30;12.98;;;12.05;;
21034;SDS011;10676;50.848;3.272;2023-09-08T12:38:55;13.93;;;12.82;;
21034;SDS011;10676;50.848;3.272;2023-09-08T12:41:21;13.55;;;12.50;;
21034;SDS011;10676;50.848;3.272;2023-09-08T12:43:47;13.05;;;12.15;;
21034;SDS011;10676;50.848;3.272;2023-09-08T12:46:13;12.90;;;11.93;;
21034;SDS011;10676;50.848;3.272;2023-09-08T12:48:42;14.52;;;12.82;;
21034;SDS011;10676;50.848;3.272;2023-09-08T12:51:07;13.57;;;12.65;;
21034;SDS011;10676;50.848;3.272;2023-09-08T12:53:33;14.20;;;12.75;;
21034;SDS011;10676;50.848;3.272;2023-09-08T12:56:02;13.93;;;12.68;;
21034;SDS011;10676;50.848;3.272;2023-09-08T12:58:28;14.63;;;13.52;;
21034;SDS011;10676;50.848;3.272;2023-09-08T13:00:54;13.40;;;12.50;;
21034;SDS011;10676;50.848;3.272;2023-09-08T13:03:19;14.95;;;13.68;;
21034;SDS011;10676;50.848;3.272;2023-09-08T13:05:45;14.50;;;13.25;;
21034;SDS011;10676;50.848;3.272;2023-09-08T13:08:11;14.45;;;13.15;;
21034;SDS011;10676;50.848;3.272;2023-09-08T13:10:40;15.20;;;13.82;;
21034;SDS011;10676;50.848;3.272;2023-09-08T13:13:06;14.63;;;13.43;;
21034;SDS011;10676;50.848;3.272;2023-09-08T13:15:31;14.57;;;13.38;;
21034;SDS011;10676;50.848;3.272;2023-09-08T13:17:57;13.98;;;12.85;;
21034;SDS011;10676;50.848;3.272;2023-09-08T13:20:23;13.65;;;12.55;;
21034;SDS011;10676;50.848;3.272;2023-09-08T13:22:48;13.15;;;12.23;;
21034;SDS011;10676;50.848;3.272;2023-09-08T13:25:14;14.68;;;13.48;;
21034;SDS011;10676;50.848;3.272;2023-09-08T13:27:40;14.60;;;13.60;;
21034;SDS011;10676;50.848;3.272;2023-09-08T13:30:07;15.02;;;13.70;;
21034;SDS011;10676;50.848;3.272;2023-09-08T13:32:33;13.55;;;12.35;;
21034;SDS011;10676;50.848;3.272;2023-09-08T13:34:59;13.80;;;12.80;;
21034;SDS011;10676;50.848;3.272;2023-09-08T13:37:25;14.02;;;12.90;;
21034;SDS011;10676;50.848;3.272;2023-09-08T13:39:51;14.30;;;13.07;;
21034;SDS011;10676;50.848;3.272;2023-09-08T13:42:16;13.40;;;12.40;;
21034;SDS011;10676;50.848;3.272;2023-09-08T13:44:42;13.55;;;12.63;;
21034;SDS011;10676;50.848;3.272;2023-09-08T13:47:08;13.55;;;12.55;;
21034;SDS011;10676;50.848;3.272;2023-09-08T13:49:33;13.98;;;12.88;;
21034;SDS011;10676;50.848;3.272;2023-09-08T13:51:59;13.13;;;12.18;;
21034;SDS011;10676;50.848;3.272;2023-09-08T13:54:25;14.13;;;12.88;;
21034;SDS011;10676;50.848;3.272;2023-09-08T13:57:01;14.48;;;13.02;;
21034;SDS011;10676;50.848;3.272;2023-09-08T13:59:28;13.85;;;12.75;;
21034;SDS011;10676;50.848;3.272;2023-09-08T14:01:55;13.73;;;12.52;;
21034;SDS011;10676;50.848;3.272;2023-09-08T14:04:22;13.20;;;12.30;;
21034;SDS011;10676;50.848;3.272;2023-09-08T14:06:49;12.85;;;11.75;;
21034;SDS011;10676;50.848;3.272;2023-09-08T14:09:15;13.27;;;12.23;;
21034;SDS011;10676;50.848;3.272;2023-09-08T14:11:40;12.93;;;11.82;;
21034;SDS011;10676;50.848;3.272;2023-09-08T14:14:06;13.27;;;12.15;;
21034;SDS011;10676;50.848;3.272;2023-09-08T14:16:32;13.48;;;12.32;;
21034;SDS011;10676;50.848;3.272;2023-09-08T14:18:58;13.52;;;12.25;;
21034;SDS011;10676;50.848;3.272;2023-09-08T14:21:23;13.43;;;12.13;;
21034;SDS011;10676;50.848;3.272;2023-09-08T14:23:49;12.80;;;11.82;;